Terminal Aerodrome Forecast
Issued by NWS Kansas City/Pleasant Hill, MO

Home | Current Version | Previous Version | Text Only | Print | Product List | Glossary Off
Versions: 1 2 3 4 5 6 7 8 9 10 11 12 13

000
FTUS43 KEAX 011700
TAFMCI
TAF
KMCI 011721Z 0118/0218 33018G29KT 1 1/2SM -SN BR OVC012
     FM020000 34013G25KT 3SM -SN OVC015
     FM020400 31012KT P6SM BKN025
     FM021000 30006KT P6SM SKC=

USA.gov is the U.S. government's official web portal to all federal, state and local government web resources and services.